sensor_id;sensor_type;location;lat;lon;timestamp;P1;durP1;ratioP1;P2;durP2;ratioP2
24961;SDS011;12992;50.884;13.668;2023-01-29T00:01:51;12.48;;;6.93;;
24961;SDS011;12992;50.884;13.668;2023-01-29T00:04:17;10.77;;;5.93;;
24961;SDS011;12992;50.884;13.668;2023-01-29T00:06:42;11.65;;;6.55;;
24961;SDS011;12992;50.884;13.668;2023-01-29T00:09:08;14.73;;;7.60;;
24961;SDS011;12992;50.884;13.668;2023-01-29T00:11:33;13.80;;;6.82;;
24961;SDS011;12992;50.884;13.668;2023-01-29T00:13:59;12.50;;;6.82;;
24961;SDS011;12992;50.884;13.668;2023-01-29T00:16:24;12.65;;;6.93;;
24961;SDS011;12992;50.884;13.668;2023-01-29T00:18:49;10.77;;;6.82;;
24961;SDS011;12992;50.884;13.668;2023-01-29T00:21:16;10.50;;;6.57;;
24961;SDS011;12992;50.884;13.668;2023-01-29T00:23:43;13.90;;;7.85;;
24961;SDS011;12992;50.884;13.668;2023-01-29T00:26:09;12.45;;;7.50;;
24961;SDS011;12992;50.884;13.668;2023-01-29T00:28:37;14.90;;;7.50;;
24961;SDS011;12992;50.884;13.668;2023-01-29T00:31:09;13.52;;;7.07;;
24961;SDS011;12992;50.884;13.668;2023-01-29T00:33:37;14.20;;;7.55;;
24961;SDS011;12992;50.884;13.668;2023-01-29T00:36:03;15.25;;;7.88;;
24961;SDS011;12992;50.884;13.668;2023-01-29T00:38:30;17.52;;;7.80;;
24961;SDS011;12992;50.884;13.668;2023-01-29T00:40:55;14.43;;;7.70;;
24961;SDS011;12992;50.884;13.668;2023-01-29T00:43:40;15.18;;;8.50;;
24961;SDS011;12992;50.884;13.668;2023-01-29T00:46:23;13.75;;;7.13;;
24961;SDS011;12992;50.884;13.668;2023-01-29T00:48:49;11.85;;;7.15;;
24961;SDS011;12992;50.884;13.668;2023-01-29T00:51:14;11.48;;;6.47;;
24961;SDS011;12992;50.884;13.668;2023-01-29T00:53:39;10.32;;;6.18;;
24961;SDS011;12992;50.884;13.668;2023-01-29T00:56:05;11.30;;;6.45;;
24961;SDS011;12992;50.884;13.668;2023-01-29T00:58:30;8.02;;;5.80;;
24961;SDS011;12992;50.884;13.668;2023-01-29T01:01:01;10.02;;;5.68;;
24961;SDS011;12992;50.884;13.668;2023-01-29T01:03:27;10.25;;;5.85;;
24961;SDS011;12992;50.884;13.668;2023-01-29T01:06:03;11.63;;;6.70;;
24961;SDS011;12992;50.884;13.668;2023-01-29T01:08:30;12.40;;;6.60;;
24961;SDS011;12992;50.884;13.668;2023-01-29T01:11:14;10.82;;;6.53;;
24961;SDS011;12992;50.884;13.668;2023-01-29T01:13:39;13.05;;;6.72;;
24961;SDS011;12992;50.884;13.668;2023-01-29T01:16:08;9.75;;;6.53;;
24961;SDS011;12992;50.884;13.668;2023-01-29T01:18:35;12.45;;;6.45;;
24961;SDS011;12992;50.884;13.668;2023-01-29T01:21:02;12.68;;;7.13;;
24961;SDS011;12992;50.884;13.668;2023-01-29T01:23:27;12.38;;;6.85;;
24961;SDS011;12992;50.884;13.668;2023-01-29T01:25:52;13.73;;;7.03;;
24961;SDS011;12992;50.884;13.668;2023-01-29T01:28:18;12.05;;;7.22;;
24961;SDS011;12992;50.884;13.668;2023-01-29T01:30:43;13.93;;;7.20;;
24961;SDS011;12992;50.884;13.668;2023-01-29T01:33:09;10.95;;;7.03;;
24961;SDS011;12992;50.884;13.668;2023-01-29T01:35:34;12.88;;;7.80;;
24961;SDS011;12992;50.884;13.668;2023-01-29T01:37:59;15.32;;;8.00;;
24961;SDS011;12992;50.884;13.668;2023-01-29T01:40:25;13.50;;;8.23;;
24961;SDS011;12992;50.884;13.668;2023-01-29T01:42:54;11.40;;;7.38;;
24961;SDS011;12992;50.884;13.668;2023-01-29T01:45:24;13.00;;;7.50;;
24961;SDS011;12992;50.884;13.668;2023-01-29T01:47:58;12.68;;;7.22;;
24961;SDS011;12992;50.884;13.668;2023-01-29T01:50:30;12.80;;;7.60;;
24961;SDS011;12992;50.884;13.668;2023-01-29T01:53:00;11.15;;;7.32;;
24961;SDS011;12992;50.884;13.668;2023-01-29T01:58:00;13.50;;;7.53;;
24961;SDS011;12992;50.884;13.668;2023-01-29T02:00:30;12.77;;;7.60;;
24961;SDS011;12992;50.884;13.668;2023-01-29T02:02:56;14.55;;;8.15;;
24961;SDS011;12992;50.884;13.668;2023-01-29T02:05:39;13.15;;;8.00;;
24961;SDS011;12992;50.884;13.668;2023-01-29T02:08:29;12.35;;;7.95;;
24961;SDS011;12992;50.884;13.668;2023-01-29T02:11:21;12.15;;;7.57;;
24961;SDS011;12992;50.884;13.668;2023-01-29T02:13:48;12.88;;;8.30;;
24961;SDS011;12992;50.884;13.668;2023-01-29T02:16:23;13.70;;;8.23;;
24961;SDS011;12992;50.884;13.668;2023-01-29T02:18:49;14.13;;;8.13;;
24961;SDS011;12992;50.884;13.668;2023-01-29T02:30:16;11.18;;;7.40;;
24961;SDS011;12992;50.884;13.668;2023-01-29T02:33:14;14.10;;;7.82;;
24961;SDS011;12992;50.884;13.668;2023-01-29T02:36:03;14.57;;;9.70;;
24961;SDS011;12992;50.884;13.668;2023-01-29T02:38:46;11.18;;;7.55;;
24961;SDS011;12992;50.884;13.668;2023-01-29T02:43:58;16.15;;;8.65;;
24961;SDS011;12992;50.884;13.668;2023-01-29T02:46:35;13.90;;;8.55;;
24961;SDS011;12992;50.884;13.668;2023-01-29T02:49:16;16.52;;;10.10;;
24961;SDS011;12992;50.884;13.668;2023-01-29T02:54:52;14.15;;;9.05;;
24961;SDS011;12992;50.884;13.668;2023-01-29T02:57:38;13.07;;;8.60;;
24961;SDS011;12992;50.884;13.668;2023-01-29T03:00:11;18.15;;;9.93;;
24961;SDS011;12992;50.884;13.668;2023-01-29T03:05:34;15.25;;;8.88;;
24961;SDS011;12992;50.884;13.668;2023-01-29T03:08:10;16.92;;;9.30;;
24961;SDS011;12992;50.884;13.668;2023-01-29T03:10:43;16.77;;;10.32;;
24961;SDS011;12992;50.884;13.668;2023-01-29T03:13:17;17.13;;;9.98;;
24961;SDS011;12992;50.884;13.668;2023-01-29T03:15:51;15.85;;;9.55;;
24961;SDS011;12992;50.884;13.668;2023-01-29T03:18:42;17.15;;;9.60;;
24961;SDS011;12992;50.884;13.668;2023-01-29T03:21:16;15.80;;;9.68;;
24961;SDS011;12992;50.884;13.668;2023-01-29T03:24:07;14.52;;;7.88;;
24961;SDS011;12992;50.884;13.668;2023-01-29T03:26:54;18.75;;;9.70;;
24961;SDS011;12992;50.884;13.668;2023-01-29T03:29:42;17.60;;;10.32;;
24961;SDS011;12992;50.884;13.668;2023-01-29T03:32:44;22.43;;;10.23;;
24961;SDS011;12992;50.884;13.668;2023-01-29T03:35:12;17.52;;;9.90;;
24961;SDS011;12992;50.884;13.668;2023-01-29T03:37:46;16.02;;;9.63;;
24961;SDS011;12992;50.884;13.668;2023-01-29T03:40:13;17.52;;;10.48;;
24961;SDS011;12992;50.884;13.668;2023-01-29T03:43:04;16.73;;;9.63;;
24961;SDS011;12992;50.884;13.668;2023-01-29T03:45:38;17.60;;;9.90;;
24961;SDS011;12992;50.884;13.668;2023-01-29T03:50:53;16.52;;;8.57;;
24961;SDS011;12992;50.884;13.668;2023-01-29T03:53:28;13.35;;;8.65;;
24961;SDS011;12992;50.884;13.668;2023-01-29T03:56:14;17.75;;;9.50;;
24961;SDS011;12992;50.884;13.668;2023-01-29T04:02:14;17.80;;;9.77;;
24961;SDS011;12992;50.884;13.668;2023-01-29T04:04:56;15.13;;;9.10;;
24961;SDS011;12992;50.884;13.668;2023-01-29T04:07:27;15.65;;;9.57;;
24961;SDS011;12992;50.884;13.668;2023-01-29T04:10:05;16.73;;;9.73;;
24961;SDS011;12992;50.884;13.668;2023-01-29T04:12:52;18.60;;;10.38;;
24961;SDS011;12992;50.884;13.668;2023-01-29T04:15:23;18.50;;;11.05;;
24961;SDS011;12992;50.884;13.668;2023-01-29T04:17:52;18.80;;;11.48;;
24961;SDS011;12992;50.884;13.668;2023-01-29T04:20:28;23.30;;;13.25;;
24961;SDS011;12992;50.884;13.668;2023-01-29T04:22:53;21.95;;;12.13;;
24961;SDS011;12992;50.884;13.668;2023-01-29T04:25:23;22.80;;;12.90;;
24961;SDS011;12992;50.884;13.668;2023-01-29T04:27:56;25.23;;;14.57;;
24961;SDS011;12992;50.884;13.668;2023-01-29T04:30:52;26.92;;;14.80;;
24961;SDS011;12992;50.884;13.668;2023-01-29T04:39:21;23.15;;;13.55;;
24961;SDS011;12992;50.884;13.668;2023-01-29T04:42:05;24.30;;;14.27;;
24961;SDS011;12992;50.884;13.668;2023-01-29T04:50:40;23.80;;;13.25;;
24961;SDS011;12992;50.884;13.668;2023-01-29T04:53:15;22.27;;;13.20;;
24961;SDS011;12992;50.884;13.668;2023-01-29T04:55:52;22.88;;;12.63;;
24961;SDS011;12992;50.884;13.668;2023-01-29T04:58:56;24.20;;;13.85;;
24961;SDS011;12992;50.884;13.668;2023-01-29T05:01:17;21.73;;;12.98;;
24961;SDS011;12992;50.884;13.668;2023-01-29T05:03:45;20.65;;;12.88;;
24961;SDS011;12992;50.884;13.668;2023-01-29T05:06:14;22.88;;;12.82;;
24961;SDS011;12992;50.884;13.668;2023-01-29T05:08:42;21.45;;;12.15;;
24961;SDS011;12992;50.884;13.668;2023-01-29T05:11:08;20.42;;;12.50;;
24961;SDS011;12992;50.884;13.668;2023-01-29T05:13:35;23.15;;;12.60;;
24961;SDS011;12992;50.884;13.668;2023-01-29T05:16:04;22.25;;;11.70;;
24961;SDS011;12992;50.884;13.668;2023-01-29T05:18:34;18.10;;;11.18;;
24961;SDS011;12992;50.884;13.668;2023-01-29T05:21:01;17.23;;;11.60;;
24961;SDS011;12992;50.884;13.668;2023-01-29T05:23:31;27.43;;;13.03;;
24961;SDS011;12992;50.884;13.668;2023-01-29T05:25:56;20.42;;;11.80;;
24961;SDS011;12992;50.884;13.668;2023-01-29T05:28:22;20.67;;;12.02;;
24961;SDS011;12992;50.884;13.668;2023-01-29T05:30:49;20.58;;;11.68;;
24961;SDS011;12992;50.884;13.668;2023-01-29T05:35:43;18.80;;;11.57;;
24961;SDS011;12992;50.884;13.668;2023-01-29T05:38:08;19.73;;;11.77;;
24961;SDS011;12992;50.884;13.668;2023-01-29T05:40:34;21.50;;;11.88;;
24961;SDS011;12992;50.884;13.668;2023-01-29T05:43:00;24.67;;;11.57;;
24961;SDS011;12992;50.884;13.668;2023-01-29T05:45:25;20.80;;;11.73;;
24961;SDS011;12992;50.884;13.668;2023-01-29T05:47:54;26.55;;;12.27;;
24961;SDS011;12992;50.884;13.668;2023-01-29T05:50:21;19.95;;;11.10;;
24961;SDS011;12992;50.884;13.668;2023-01-29T05:52:46;16.17;;;10.07;;
24961;SDS011;12992;50.884;13.668;2023-01-29T05:55:12;19.60;;;11.25;;
24961;SDS011;12992;50.884;13.668;2023-01-29T05:57:38;19.23;;;10.43;;
24961;SDS011;12992;50.884;13.668;2023-01-29T06:00:04;21.45;;;11.20;;
24961;SDS011;12992;50.884;13.668;2023-01-29T06:02:37;21.30;;;11.32;;
24961;SDS011;12992;50.884;13.668;2023-01-29T06:05:02;20.58;;;11.50;;
24961;SDS011;12992;50.884;13.668;2023-01-29T06:07:28;20.05;;;11.88;;
24961;SDS011;12992;50.884;13.668;2023-01-29T06:09:53;19.23;;;11.90;;
24961;SDS011;12992;50.884;13.668;2023-01-29T06:12:19;22.27;;;12.10;;
24961;SDS011;12992;50.884;13.668;2023-01-29T06:14:44;21.80;;;11.88;;
24961;SDS011;12992;50.884;13.668;2023-01-29T06:17:09;23.48;;;12.13;;
24961;SDS011;12992;50.884;13.668;2023-01-29T06:19:34;24.75;;;11.95;;
24961;SDS011;12992;50.884;13.668;2023-01-29T06:22:00;22.42;;;12.75;;
24961;SDS011;12992;50.884;13.668;2023-01-29T06:24:25;20.00;;;11.50;;
24961;SDS011;12992;50.884;13.668;2023-01-29T06:26:50;19.40;;;11.85;;
24961;SDS011;12992;50.884;13.668;2023-01-29T06:29:16;18.33;;;11.02;;
24961;SDS011;12992;50.884;13.668;2023-01-29T06:31:41;18.35;;;10.63;;
24961;SDS011;12992;50.884;13.668;2023-01-29T06:34:07;21.80;;;11.40;;
24961;SDS011;12992;50.884;13.668;2023-01-29T06:36:32;18.98;;;11.70;;
24961;SDS011;12992;50.884;13.668;2023-01-29T06:38:58;19.98;;;11.52;;
24961;SDS011;12992;50.884;13.668;2023-01-29T06:41:23;20.98;;;11.55;;
24961;SDS011;12992;50.884;13.668;2023-01-29T06:43:49;18.48;;;11.25;;
24961;SDS011;12992;50.884;13.668;2023-01-29T06:46:15;19.20;;;11.25;;
24961;SDS011;12992;50.884;13.668;2023-01-29T06:48:40;19.25;;;11.40;;
24961;SDS011;12992;50.884;13.668;2023-01-29T06:51:06;19.15;;;11.02;;
24961;SDS011;12992;50.884;13.668;2023-01-29T06:53:34;20.42;;;11.02;;
24961;SDS011;12992;50.884;13.668;2023-01-29T06:56:00;17.38;;;10.93;;
24961;SDS011;12992;50.884;13.668;2023-01-29T06:58:25;15.30;;;9.93;;
24961;SDS011;12992;50.884;13.668;2023-01-29T07:00:51;17.20;;;9.88;;
24961;SDS011;12992;50.884;13.668;2023-01-29T07:03:16;16.35;;;9.82;;
24961;SDS011;12992;50.884;13.668;2023-01-29T07:05:42;18.40;;;10.25;;
24961;SDS011;12992;50.884;13.668;2023-01-29T07:08:07;17.65;;;10.55;;
24961;SDS011;12992;50.884;13.668;2023-01-29T07:10:33;17.73;;;9.63;;
24961;SDS011;12992;50.884;13.668;2023-01-29T07:12:59;15.63;;;10.63;;
24961;SDS011;12992;50.884;13.668;2023-01-29T07:15:24;15.60;;;9.88;;
24961;SDS011;12992;50.884;13.668;2023-01-29T07:17:57;15.27;;;10.00;;
24961;SDS011;12992;50.884;13.668;2023-01-29T07:20:26;17.75;;;11.85;;
24961;SDS011;12992;50.884;13.668;2023-01-29T07:22:53;21.20;;;12.70;;
24961;SDS011;12992;50.884;13.668;2023-01-29T07:25:21;19.73;;;11.88;;
24961;SDS011;12992;50.884;13.668;2023-01-29T07:27:46;19.75;;;12.02;;
24961;SDS011;12992;50.884;13.668;2023-01-29T07:30:11;16.38;;;10.13;;
24961;SDS011;12992;50.884;13.668;2023-01-29T07:32:37;19.10;;;12.10;;
24961;SDS011;12992;50.884;13.668;2023-01-29T07:35:03;17.00;;;11.60;;
24961;SDS011;12992;50.884;13.668;2023-01-29T07:37:28;22.80;;;12.70;;
24961;SDS011;12992;50.884;13.668;2023-01-29T07:39:54;20.75;;;12.85;;
24961;SDS011;12992;50.884;13.668;2023-01-29T07:42:19;15.13;;;9.10;;
24961;SDS011;12992;50.884;13.668;2023-01-29T07:44:44;15.35;;;9.55;;
24961;SDS011;12992;50.884;13.668;2023-01-29T07:47:10;14.25;;;9.20;;
24961;SDS011;12992;50.884;13.668;2023-01-29T07:49:35;12.68;;;8.45;;
24961;SDS011;12992;50.884;13.668;2023-01-29T07:52:01;14.50;;;8.60;;
24961;SDS011;12992;50.884;13.668;2023-01-29T07:54:26;15.82;;;8.85;;
24961;SDS011;12992;50.884;13.668;2023-01-29T07:56:51;14.45;;;8.65;;
24961;SDS011;12992;50.884;13.668;2023-01-29T07:59:17;12.18;;;8.60;;
24961;SDS011;12992;50.884;13.668;2023-01-29T08:01:42;14.20;;;8.77;;
24961;SDS011;12992;50.884;13.668;2023-01-29T08:04:07;15.30;;;8.65;;
24961;SDS011;12992;50.884;13.668;2023-01-29T08:06:33;12.18;;;7.78;;
24961;SDS011;12992;50.884;13.668;2023-01-29T08:08:58;13.55;;;8.10;;
24961;SDS011;12992;50.884;13.668;2023-01-29T08:11:23;13.02;;;8.18;;
24961;SDS011;12992;50.884;13.668;2023-01-29T08:13:49;14.48;;;8.48;;
24961;SDS011;12992;50.884;13.668;2023-01-29T08:16:14;11.55;;;8.23;;
24961;SDS011;12992;50.884;13.668;2023-01-29T08:18:40;14.68;;;9.07;;
24961;SDS011;12992;50.884;13.668;2023-01-29T08:21:08;13.25;;;8.57;;
24961;SDS011;12992;50.884;13.668;2023-01-29T08:23:33;14.10;;;8.60;;
24961;SDS011;12992;50.884;13.668;2023-01-29T08:26:00;13.90;;;8.57;;
24961;SDS011;12992;50.884;13.668;2023-01-29T08:28:27;12.93;;;8.65;;
24961;SDS011;12992;50.884;13.668;2023-01-29T08:30:52;13.05;;;8.27;;
24961;SDS011;12992;50.884;13.668;2023-01-29T08:33:17;14.15;;;8.90;;
24961;SDS011;12992;50.884;13.668;2023-01-29T08:35:43;10.57;;;7.97;;
24961;SDS011;12992;50.884;13.668;2023-01-29T08:38:13;11.65;;;7.55;;
24961;SDS011;12992;50.884;13.668;2023-01-29T08:40:38;12.65;;;7.93;;
24961;SDS011;12992;50.884;13.668;2023-01-29T08:43:04;16.85;;;9.27;;
24961;SDS011;12992;50.884;13.668;2023-01-29T08:45:34;18.85;;;12.43;;
24961;SDS011;12992;50.884;13.668;2023-01-29T08:48:01;13.27;;;9.05;;
24961;SDS011;12992;50.884;13.668;2023-01-29T08:50:27;16.65;;;9.32;;
24961;SDS011;12992;50.884;13.668;2023-01-29T08:52:56;15.00;;;9.10;;
24961;SDS011;12992;50.884;13.668;2023-01-29T08:55:22;13.93;;;9.27;;
24961;SDS011;12992;50.884;13.668;2023-01-29T08:57:48;13.70;;;9.18;;
24961;SDS011;12992;50.884;13.668;2023-01-29T09:00:13;14.80;;;9.25;;
24961;SDS011;12992;50.884;13.668;2023-01-29T09:02:39;12.10;;;7.78;;
24961;SDS011;12992;50.884;13.668;2023-01-29T09:05:04;9.93;;;7.40;;
24961;SDS011;12992;50.884;13.668;2023-01-29T09:07:30;12.32;;;8.00;;
24961;SDS011;12992;50.884;13.668;2023-01-29T09:09:55;13.07;;;8.00;;
24961;SDS011;12992;50.884;13.668;2023-01-29T09:12:21;12.23;;;7.63;;
24961;SDS011;12992;50.884;13.668;2023-01-29T09:14:47;13.25;;;7.75;;
24961;SDS011;12992;50.884;13.668;2023-01-29T09:17:12;11.23;;;7.18;;
24961;SDS011;12992;50.884;13.668;2023-01-29T09:19:37;12.52;;;8.15;;
24961;SDS011;12992;50.884;13.668;2023-01-29T09:22:03;14.85;;;8.25;;
24961;SDS011;12992;50.884;13.668;2023-01-29T09:24:28;12.70;;;8.00;;
24961;SDS011;12992;50.884;13.668;2023-01-29T09:26:54;11.20;;;7.65;;
24961;SDS011;12992;50.884;13.668;2023-01-29T09:29:19;15.05;;;8.50;;
24961;SDS011;12992;50.884;13.668;2023-01-29T09:31:44;11.93;;;7.88;;
24961;SDS011;12992;50.884;13.668;2023-01-29T09:34:10;13.95;;;9.02;;
24961;SDS011;12992;50.884;13.668;2023-01-29T09:36:35;14.57;;;8.25;;
24961;SDS011;12992;50.884;13.668;2023-01-29T09:39:00;12.20;;;7.75;;
24961;SDS011;12992;50.884;13.668;2023-01-29T09:41:38;16.92;;;9.00;;
24961;SDS011;12992;50.884;13.668;2023-01-29T09:44:18;10.93;;;8.05;;
24961;SDS011;12992;50.884;13.668;2023-01-29T09:47:10;12.63;;;8.15;;
24961;SDS011;12992;50.884;13.668;2023-01-29T09:49:40;14.50;;;8.30;;
24961;SDS011;12992;50.884;13.668;2023-01-29T09:52:12;12.20;;;8.15;;
24961;SDS011;12992;50.884;13.668;2023-01-29T09:54:47;13.88;;;7.60;;
24961;SDS011;12992;50.884;13.668;2023-01-29T09:57:23;12.15;;;7.97;;
24961;SDS011;12992;50.884;13.668;2023-01-29T09:59:53;15.68;;;8.43;;
24961;SDS011;12992;50.884;13.668;2023-01-29T10:10:50;14.52;;;8.32;;
24961;SDS011;12992;50.884;13.668;2023-01-29T10:13:28;13.90;;;8.95;;
24961;SDS011;12992;50.884;13.668;2023-01-29T10:16:12;12.75;;;8.57;;
24961;SDS011;12992;50.884;13.668;2023-01-29T10:24:21;14.98;;;9.15;;
24961;SDS011;12992;50.884;13.668;2023-01-29T10:26:50;14.48;;;9.27;;
24961;SDS011;12992;50.884;13.668;2023-01-29T10:29:17;15.65;;;8.95;;
24961;SDS011;12992;50.884;13.668;2023-01-29T10:31:44;13.27;;;8.98;;
24961;SDS011;12992;50.884;13.668;2023-01-29T10:34:30;14.57;;;8.65;;
24961;SDS011;12992;50.884;13.668;2023-01-29T10:37:16;12.52;;;8.65;;
24961;SDS011;12992;50.884;13.668;2023-01-29T10:39:43;14.75;;;8.65;;
24961;SDS011;12992;50.884;13.668;2023-01-29T10:47:53;14.95;;;8.57;;
24961;SDS011;12992;50.884;13.668;2023-01-29T10:50:41;13.70;;;8.20;;
24961;SDS011;12992;50.884;13.668;2023-01-29T10:53:22;13.75;;;8.80;;
24961;SDS011;12992;50.884;13.668;2023-01-29T10:59:00;15.05;;;9.13;;
24961;SDS011;12992;50.884;13.668;2023-01-29T11:01:49;14.40;;;9.07;;
24961;SDS011;12992;50.884;13.668;2023-01-29T11:04:15;14.98;;;8.40;;
24961;SDS011;12992;50.884;13.668;2023-01-29T11:06:40;12.57;;;8.45;;
24961;SDS011;12992;50.884;13.668;2023-01-29T11:11:56;12.18;;;8.65;;
24961;SDS011;12992;50.884;13.668;2023-01-29T11:14:46;11.25;;;8.13;;
24961;SDS011;12992;50.884;13.668;2023-01-29T11:17:19;12.32;;;8.43;;
24961;SDS011;12992;50.884;13.668;2023-01-29T11:19:47;13.20;;;8.70;;
24961;SDS011;12992;50.884;13.668;2023-01-29T11:22:16;15.13;;;9.15;;
24961;SDS011;12992;50.884;13.668;2023-01-29T11:24:44;11.18;;;8.02;;
24961;SDS011;12992;50.884;13.668;2023-01-29T11:27:23;11.90;;;8.50;;
24961;SDS011;12992;50.884;13.668;2023-01-29T11:29:53;11.20;;;7.72;;
24961;SDS011;12992;50.884;13.668;2023-01-29T11:35:00;13.40;;;9.35;;
24961;SDS011;12992;50.884;13.668;2023-01-29T11:37:30;12.52;;;8.63;;
24961;SDS011;12992;50.884;13.668;2023-01-29T11:39:57;12.10;;;8.30;;
24961;SDS011;12992;50.884;13.668;2023-01-29T11:42:23;11.95;;;7.85;;
24961;SDS011;12992;50.884;13.668;2023-01-29T11:44:48;12.07;;;8.35;;
24961;SDS011;12992;50.884;13.668;2023-01-29T11:47:20;11.35;;;7.78;;
24961;SDS011;12992;50.884;13.668;2023-01-29T11:52:23;13.40;;;8.40;;
24961;SDS011;12992;50.884;13.668;2023-01-29T11:54:58;11.55;;;7.13;;
24961;SDS011;12992;50.884;13.668;2023-01-29T11:57:37;11.38;;;7.88;;
24961;SDS011;12992;50.884;13.668;2023-01-29T12:00:12;11.57;;;7.15;;
24961;SDS011;12992;50.884;13.668;2023-01-29T12:02:45;9.85;;;6.28;;
24961;SDS011;12992;50.884;13.668;2023-01-29T12:05:14;9.23;;;6.03;;
24961;SDS011;12992;50.884;13.668;2023-01-29T12:07:45;9.07;;;6.68;;
24961;SDS011;12992;50.884;13.668;2023-01-29T12:13:02;7.57;;;5.75;;
24961;SDS011;12992;50.884;13.668;2023-01-29T12:15:35;10.95;;;6.38;;
24961;SDS011;12992;50.884;13.668;2023-01-29T12:20:43;8.57;;;5.68;;
24961;SDS011;12992;50.884;13.668;2023-01-29T12:39:28;7.70;;;5.72;;
24961;SDS011;12992;50.884;13.668;2023-01-29T12:42:01;8.65;;;6.10;;
24961;SDS011;12992;50.884;13.668;2023-01-29T12:47:25;7.57;;;5.50;;
24961;SDS011;12992;50.884;13.668;2023-01-29T12:50:03;7.28;;;5.45;;
24961;SDS011;12992;50.884;13.668;2023-01-29T12:52:36;10.63;;;5.75;;
24961;SDS011;12992;50.884;13.668;2023-01-29T12:55:18;6.93;;;5.03;;
24961;SDS011;12992;50.884;13.668;2023-01-29T12:57:48;8.13;;;5.70;;
24961;SDS011;12992;50.884;13.668;2023-01-29T13:00:21;8.13;;;5.75;;
24961;SDS011;12992;50.884;13.668;2023-01-29T13:05:46;9.55;;;5.47;;
24961;SDS011;12992;50.884;13.668;2023-01-29T13:08:29;8.57;;;5.28;;
24961;SDS011;12992;50.884;13.668;2023-01-29T13:11:00;9.75;;;6.05;;
24961;SDS011;12992;50.884;13.668;2023-01-29T13:13:33;7.10;;;5.63;;
24961;SDS011;12992;50.884;13.668;2023-01-29T13:16:20;7.68;;;5.60;;
24961;SDS011;12992;50.884;13.668;2023-01-29T13:18:50;9.75;;;5.82;;
24961;SDS011;12992;50.884;13.668;2023-01-29T13:21:21;7.18;;;5.60;;
24961;SDS011;12992;50.884;13.668;2023-01-29T13:23:50;9.30;;;6.00;;
24961;SDS011;12992;50.884;13.668;2023-01-29T13:26:21;8.95;;;6.18;;
24961;SDS011;12992;50.884;13.668;2023-01-29T13:28:48;8.75;;;6.00;;
24961;SDS011;12992;50.884;13.668;2023-01-29T13:31:28;9.80;;;6.38;;
24961;SDS011;12992;50.884;13.668;2023-01-29T13:34:11;10.23;;;6.28;;
24961;SDS011;12992;50.884;13.668;2023-01-29T13:36:43;8.63;;;5.75;;
24961;SDS011;12992;50.884;13.668;2023-01-29T13:39:21;5.57;;;4.15;;
24961;SDS011;12992;50.884;13.668;2023-01-29T13:41:51;9.38;;;6.30;;
24961;SDS011;12992;50.884;13.668;2023-01-29T13:44:28;8.45;;;5.70;;
24961;SDS011;12992;50.884;13.668;2023-01-29T13:46:58;13.07;;;6.38;;
24961;SDS011;12992;50.884;13.668;2023-01-29T13:49:28;10.25;;;5.97;;
24961;SDS011;12992;50.884;13.668;2023-01-29T13:51:56;9.20;;;5.90;;
24961;SDS011;12992;50.884;13.668;2023-01-29T13:54:23;8.55;;;5.40;;
24961;SDS011;12992;50.884;13.668;2023-01-29T13:59:20;8.82;;;5.68;;
24961;SDS011;12992;50.884;13.668;2023-01-29T14:06:50;11.18;;;6.75;;
24961;SDS011;12992;50.884;13.668;2023-01-29T14:12:00;10.13;;;5.82;;
24961;SDS011;12992;50.884;13.668;2023-01-29T14:14:48;11.15;;;5.47;;
24961;SDS011;12992;50.884;13.668;2023-01-29T14:17:16;10.88;;;6.20;;
24961;SDS011;12992;50.884;13.668;2023-01-29T14:22:42;11.45;;;5.90;;
24961;SDS011;12992;50.884;13.668;2023-01-29T14:25:14;11.10;;;6.10;;
24961;SDS011;12992;50.884;13.668;2023-01-29T14:27:46;8.82;;;5.60;;
24961;SDS011;12992;50.884;13.668;2023-01-29T14:30:14;7.80;;;5.10;;
24961;SDS011;12992;50.884;13.668;2023-01-29T14:32:41;8.50;;;5.25;;
24961;SDS011;12992;50.884;13.668;2023-01-29T14:35:18;9.93;;;5.40;;
24961;SDS011;12992;50.884;13.668;2023-01-29T14:37:47;7.40;;;4.82;;
24961;SDS011;12992;50.884;13.668;2023-01-29T14:40:19;8.10;;;5.78;;
24961;SDS011;12992;50.884;13.668;2023-01-29T14:43:07;8.27;;;5.68;;
24961;SDS011;12992;50.884;13.668;2023-01-29T14:45:44;8.73;;;5.18;;
24961;SDS011;12992;50.884;13.668;2023-01-29T14:53:04;7.32;;;4.95;;
24961;SDS011;12992;50.884;13.668;2023-01-29T14:59:04;7.47;;;4.88;;
24961;SDS011;12992;50.884;13.668;2023-01-29T15:01:14;7.25;;;4.70;;
24961;SDS011;12992;50.884;13.668;2023-01-29T15:03:42;8.88;;;4.65;;
24961;SDS011;12992;50.884;13.668;2023-01-29T15:06:15;7.00;;;4.80;;
24961;SDS011;12992;50.884;13.668;2023-01-29T15:08:49;7.65;;;4.50;;
24961;SDS011;12992;50.884;13.668;2023-01-29T15:11:21;9.60;;;4.72;;
24961;SDS011;12992;50.884;13.668;2023-01-29T15:14:16;8.20;;;4.75;;
24961;SDS011;12992;50.884;13.668;2023-01-29T15:19:28;11.55;;;5.03;;
24961;SDS011;12992;50.884;13.668;2023-01-29T15:22:05;9.43;;;4.93;;
24961;SDS011;12992;50.884;13.668;2023-01-29T15:24:33;8.63;;;4.93;;
24961;SDS011;12992;50.884;13.668;2023-01-29T15:26:59;7.47;;;4.65;;
24961;SDS011;12992;50.884;13.668;2023-01-29T15:29:26;7.70;;;4.88;;
24961;SDS011;12992;50.884;13.668;2023-01-29T15:31:53;8.40;;;4.45;;
24961;SDS011;12992;50.884;13.668;2023-01-29T15:34:19;11.05;;;5.22;;
24961;SDS011;12992;50.884;13.668;2023-01-29T15:36:46;11.02;;;5.50;;
24961;SDS011;12992;50.884;13.668;2023-01-29T15:39:14;9.10;;;5.38;;
24961;SDS011;12992;50.884;13.668;2023-01-29T15:41:40;10.20;;;5.38;;
24961;SDS011;12992;50.884;13.668;2023-01-29T15:44:11;11.18;;;5.50;;
24961;SDS011;12992;50.884;13.668;2023-01-29T15:46:40;9.77;;;5.43;;
24961;SDS011;12992;50.884;13.668;2023-01-29T15:49:10;9.75;;;5.60;;
24961;SDS011;12992;50.884;13.668;2023-01-29T15:51:44;8.75;;;5.50;;
24961;SDS011;12992;50.884;13.668;2023-01-29T15:54:11;10.40;;;5.72;;
24961;SDS011;12992;50.884;13.668;2023-01-29T15:56:40;11.18;;;5.80;;
24961;SDS011;12992;50.884;13.668;2023-01-29T16:01:42;9.82;;;5.50;;
24961;SDS011;12992;50.884;13.668;2023-01-29T16:04:08;9.25;;;5.43;;
24961;SDS011;12992;50.884;13.668;2023-01-29T16:06:40;9.73;;;6.10;;
24961;SDS011;12992;50.884;13.668;2023-01-29T16:09:06;8.77;;;5.05;;
24961;SDS011;12992;50.884;13.668;2023-01-29T16:11:32;9.50;;;5.57;;
24961;SDS011;12992;50.884;13.668;2023-01-29T16:13:59;9.15;;;5.60;;
24961;SDS011;12992;50.884;13.668;2023-01-29T16:16:26;9.57;;;5.60;;
24961;SDS011;12992;50.884;13.668;2023-01-29T16:18:52;9.75;;;5.30;;
24961;SDS011;12992;50.884;13.668;2023-01-29T16:21:23;9.23;;;5.57;;
24961;SDS011;12992;50.884;13.668;2023-01-29T16:24:05;8.25;;;5.22;;
24961;SDS011;12992;50.884;13.668;2023-01-29T16:26:36;11.60;;;5.70;;
24961;SDS011;12992;50.884;13.668;2023-01-29T16:29:08;8.23;;;5.00;;
24961;SDS011;12992;50.884;13.668;2023-01-29T16:31:35;11.50;;;5.20;;
24961;SDS011;12992;50.884;13.668;2023-01-29T16:34:09;8.80;;;5.20;;
24961;SDS011;12992;50.884;13.668;2023-01-29T16:36:43;9.30;;;5.72;;
24961;SDS011;12992;50.884;13.668;2023-01-29T16:39:20;8.65;;;5.18;;
24961;SDS011;12992;50.884;13.668;2023-01-29T16:44:45;8.75;;;4.80;;
24961;SDS011;12992;50.884;13.668;2023-01-29T16:47:19;7.78;;;4.30;;
24961;SDS011;12992;50.884;13.668;2023-01-29T16:49:59;6.68;;;4.57;;